Time;durP1;ratioP1;P1;durP2;ratioP2;P2;SDS_P1;SDS_P2;PMS_P1;PMS_P2;Temp;Humidity;BMP_temperature;BMP_pressure;BME280_temperature;BME280_humidity;BME280_pressure;Samples;Min_cycle;Max_cycle;Signal;HPM_P1;HPM_P2
2022/12/23 00:00:10;;;;;;;5.13;1.23;;;;;;;;;;5004764;28;20952;-73
2022/12/23 00:05:40;;;;;;;3.87;1.20;;;;;;;;;;5011569;28;20480;-74
2022/12/23 00:08:06;;;;;;;3.60;1.30;;;;;;;;;;5015781;28;20427;-73
2022/12/23 00:10:33;;;;;;;4.03;1.30;;;;;;;;;;5031795;28;20458;-74
2022/12/23 00:15:44;;;;;;;3.90;1.93;;;;;;;;;;5023425;28;20473;-73
2022/12/23 00:18:10;;;;;;;1.93;1.10;;;;;;;;;;5023361;28;20525;-74
2022/12/23 00:20:36;;;;;;;3.17;1.10;;;;;;;;;;5032680;28;20433;-73
2022/12/23 00:23:05;;;;;;;2.00;1.40;;;;;;;;;;5004489;28;20568;-74
2022/12/23 00:25:43;;;;;;;3.20;1.10;;;;;;;;;;4977778;28;20855;-74
2022/12/23 00:28:16;;;;;;;2.07;0.90;;;;;;;;;;5032179;28;20447;-74
2022/12/23 00:30:52;;;;;;;1.37;1.00;;;;;;;;;;4982278;28;20475;-74
2022/12/23 00:36:11;;;;;;;2.70;1.67;;;;;;;;;;4964869;28;20470;-74
2022/12/23 00:44:06;;;;;;;1.73;1.07;;;;;;;;;;5006588;28;20463;-74
2022/12/23 00:46:32;;;;;;;1.10;0.90;;;;;;;;;;5026111;28;20884;-73
2022/12/23 00:51:43;;;;;;;1.73;0.93;;;;;;;;;;5037968;28;21085;-73
2022/12/23 00:54:08;;;;;;;1.87;0.90;;;;;;;;;;4995374;28;20455;-73
2022/12/23 00:56:34;;;;;;;1.20;0.90;;;;;;;;;;5035146;28;20470;-73
2022/12/23 00:59:00;;;;;;;1.30;1.03;;;;;;;;;;4972736;28;20447;-73
2022/12/23 01:07:04;;;;;;;2.20;1.10;;;;;;;;;;5030586;28;20450;-73
2022/12/23 01:09:30;;;;;;;3.23;1.00;;;;;;;;;;5001599;28;21408;-73
2022/12/23 01:11:56;;;;;;;1.40;0.70;;;;;;;;;;5027600;28;20440;-73
2022/12/23 01:14:22;;;;;;;1.23;0.90;;;;;;;;;;5002301;28;20470;-74
2022/12/23 01:16:48;;;;;;;1.37;0.97;;;;;;;;;;5022339;28;20852;-74
2022/12/23 01:19:14;;;;;;;1.03;0.77;;;;;;;;;;5011956;28;20438;-73
2022/12/23 01:21:40;;;;;;;1.63;1.00;;;;;;;;;;5023241;28;20442;-73
2022/12/23 01:24:07;;;;;;;1.27;0.90;;;;;;;;;;5009535;28;20466;-73
2022/12/23 01:26:33;;;;;;;1.00;0.67;;;;;;;;;;5007656;28;20537;-73
2022/12/23 01:28:59;;;;;;;5.47;1.30;;;;;;;;;;5026631;28;20415;-74
2022/12/23 01:31:25;;;;;;;1.63;0.60;;;;;;;;;;5036586;28;20965;-74
2022/12/23 01:33:51;;;;;;;1.53;0.80;;;;;;;;;;4992377;28;21421;-73
2022/12/23 01:36:17;;;;;;;2.30;0.70;;;;;;;;;;5029211;28;20446;-73
2022/12/23 01:38:43;;;;;;;1.00;0.60;;;;;;;;;;4997995;28;20798;-74
2022/12/23 01:42:42;;;;;;;1.70;1.00;;;;;;;;;;5024968;28;20454;-73
2022/12/23 01:44:00;;;;;;;2.90;1.30;;;;;;;;;;5015015;28;20431;-73
2022/12/23 01:46:26;;;;;;;1.00;0.57;;;;;;;;;;5026244;28;20450;-74
2022/12/23 01:48:52;;;;;;;1.50;0.60;;;;;;;;;;5014907;28;20439;-74
2022/12/23 01:51:23;;;;;;;0.90;0.60;;;;;;;;;;5023240;28;20446;-74
2022/12/23 01:53:50;;;;;;;1.10;0.67;;;;;;;;;;5019721;28;20448;-74
2022/12/23 01:56:16;;;;;;;1.17;0.70;;;;;;;;;;5026841;28;20453;-74
2022/12/23 01:58:42;;;;;;;1.00;0.70;;;;;;;;;;5010888;28;20448;-73
2022/12/23 02:03:54;;;;;;;1.37;0.70;;;;;;;;;;5008433;28;20457;-74
2022/12/23 02:09:22;;;;;;;1.50;0.80;;;;;;;;;;4991708;28;20571;-74
2022/12/23 02:12:00;;;;;;;1.37;0.80;;;;;;;;;;5019069;28;20446;-73
2022/12/23 02:17:29;;;;;;;1.33;0.60;;;;;;;;;;5047063;28;20432;-75
2022/12/23 02:20:14;;;;;;;1.00;0.50;;;;;;;;;;5002903;28;20878;-74
2022/12/23 02:22:58;;;;;;;1.77;0.80;;;;;;;;;;5041654;28;20470;-74
2022/12/23 02:25:32;;;;;;;4.40;0.60;;;;;;;;;;5018460;28;20544;-74
2022/12/23 02:28:30;;;;;;;1.97;0.70;;;;;;;;;;5033786;28;20433;-73
2022/12/23 02:30:59;;;;;;;1.00;0.60;;;;;;;;;;4976843;28;20438;-73
2022/12/23 02:33:31;;;;;;;1.00;0.50;;;;;;;;;;5022351;28;20487;-75
2022/12/23 02:35:57;;;;;;;1.10;0.60;;;;;;;;;;5008052;28;20450;-74
2022/12/23 02:38:29;;;;;;;0.90;0.50;;;;;;;;;;5008731;28;21015;-75
2022/12/23 02:40:55;;;;;;;3.20;0.80;;;;;;;;;;5005376;28;20450;-74
2022/12/23 02:43:44;;;;;;;1.10;0.50;;;;;;;;;;5043829;28;20434;-76
2022/12/23 02:46:13;;;;;;;1.07;0.60;;;;;;;;;;4993998;28;20821;-75
2022/12/23 02:48:51;;;;;;;0.90;0.50;;;;;;;;;;5004984;28;20474;-74
2022/12/23 02:51:17;;;;;;;0.90;0.50;;;;;;;;;;5001249;28;21307;-74
2022/12/23 02:53:45;;;;;;;1.20;0.50;;;;;;;;;;5007710;28;20469;-74
2022/12/23 02:56:11;;;;;;;2.17;0.67;;;;;;;;;;5004272;28;20447;-75
2022/12/23 02:58:43;;;;;;;0.90;0.57;;;;;;;;;;5014198;28;20447;-74
2022/12/23 03:01:09;;;;;;;3.60;1.00;;;;;;;;;;5003266;28;20439;-73
2022/12/23 03:03:35;;;;;;;1.00;0.60;;;;;;;;;;5023738;28;20447;-74
2022/12/23 03:06:01;;;;;;;1.10;0.50;;;;;;;;;;5007310;28;20458;-74
2022/12/23 03:08:29;;;;;;;1.10;0.57;;;;;;;;;;5021231;28;20435;-74
2022/12/23 03:10:58;;;;;;;1.00;0.60;;;;;;;;;;5024181;28;20699;-74
2022/12/23 03:13:33;;;;;;;1.13;0.60;;;;;;;;;;5026989;28;20557;-73
2022/12/23 03:16:25;;;;;;;1.27;0.77;;;;;;;;;;5021395;28;20711;-77
2022/12/23 03:19:12;;;;;;;1.33;0.70;;;;;;;;;;5036650;28;20500;-73
2022/12/23 03:21:54;;;;;;;1.20;0.70;;;;;;;;;;5028247;28;20835;-75
2022/12/23 03:24:25;;;;;;;1.00;0.70;;;;;;;;;;5023716;28;20479;-73
2022/12/23 03:26:54;;;;;;;2.30;0.60;;;;;;;;;;5020378;28;20462;-74
2022/12/23 03:29:32;;;;;;;1.00;0.60;;;;;;;;;;5025914;28;20474;-73
2022/12/23 03:31:58;;;;;;;0.90;0.57;;;;;;;;;;5015770;28;20980;-74
2022/12/23 03:34:25;;;;;;;0.90;0.57;;;;;;;;;;5045923;28;20507;-73
2022/12/23 03:36:52;;;;;;;2.07;0.60;;;;;;;;;;5006987;28;23659;-75
2022/12/23 03:39:21;;;;;;;1.27;0.60;;;;;;;;;;5010875;28;20807;-74
2022/12/23 03:41:48;;;;;;;2.17;0.60;;;;;;;;;;5017495;28;20442;-74
2022/12/23 03:44:23;;;;;;;1.33;0.80;;;;;;;;;;5003483;28;20474;-74
2022/12/23 03:47:14;;;;;;;1.37;0.60;;;;;;;;;;5022200;28;20435;-74
2022/12/23 03:49:43;;;;;;;0.90;0.50;;;;;;;;;;5009217;28;20471;-76
2022/12/23 03:52:10;;;;;;;1.00;0.50;;;;;;;;;;4989740;28;20438;-74
2022/12/23 03:54:46;;;;;;;2.20;0.67;;;;;;;;;;5010047;28;20568;-75
2022/12/23 03:57:12;;;;;;;3.57;0.77;;;;;;;;;;4986259;28;20944;-75
2022/12/23 03:59:39;;;;;;;1.53;0.60;;;;;;;;;;5001659;28;20455;-74
2022/12/23 04:02:18;;;;;;;1.27;0.60;;;;;;;;;;5010782;28;23324;-75
2022/12/23 04:05:05;;;;;;;1.00;0.60;;;;;;;;;;5030277;28;20489;-74
2022/12/23 04:07:33;;;;;;;0.80;0.50;;;;;;;;;;4990998;28;20461;-74
2022/12/23 04:09:59;;;;;;;1.10;0.60;;;;;;;;;;5010118;28;20440;-74
2022/12/23 04:12:27;;;;;;;0.90;0.57;;;;;;;;;;5003929;28;20480;-73
2022/12/23 04:14:53;;;;;;;1.83;1.27;;;;;;;;;;5009762;28;20444;-74
2022/12/23 04:17:19;;;;;;;0.80;0.40;;;;;;;;;;4980629;28;21144;-74
2022/12/23 04:19:45;;;;;;;0.83;0.50;;;;;;;;;;5009781;28;20451;-74
2022/12/23 04:22:22;;;;;;;0.90;0.50;;;;;;;;;;4989820;28;20907;-77
2022/12/23 04:24:49;;;;;;;0.90;0.50;;;;;;;;;;5034523;28;21002;-73
2022/12/23 04:27:15;;;;;;;1.10;0.70;;;;;;;;;;5013585;28;20526;-75
2022/12/23 04:29:41;;;;;;;1.00;0.50;;;;;;;;;;5034863;28;20453;-73
2022/12/23 04:32:09;;;;;;;1.10;0.60;;;;;;;;;;5008975;28;21438;-74
2022/12/23 04:34:35;;;;;;;1.40;0.60;;;;;;;;;;5015441;28;20479;-74
2022/12/23 04:37:01;;;;;;;1.10;0.67;;;;;;;;;;5019614;28;20609;-75
2022/12/23 04:39:27;;;;;;;1.23;0.80;;;;;;;;;;5023304;28;20442;-74
2022/12/23 04:41:53;;;;;;;1.30;0.80;;;;;;;;;;5031655;28;20484;-75
2022/12/23 04:44:19;;;;;;;1.10;0.70;;;;;;;;;;5034694;28;20486;-74
2022/12/23 04:46:45;;;;;;;1.03;0.60;;;;;;;;;;5033008;28;20431;-74
2022/12/23 04:49:11;;;;;;;0.97;0.57;;;;;;;;;;5022715;28;21036;-75
2022/12/23 04:54:39;;;;;;;1.20;0.60;;;;;;;;;;5001196;28;20441;-75
2022/12/23 04:57:05;;;;;;;1.37;0.77;;;;;;;;;;5016746;28;20425;-73
2022/12/23 04:59:31;;;;;;;1.40;0.60;;;;;;;;;;5032098;28;20439;-75
2022/12/23 05:01:57;;;;;;;1.03;0.73;;;;;;;;;;5019377;28;21154;-75
2022/12/23 05:04:23;;;;;;;1.07;0.70;;;;;;;;;;5034166;28;20532;-75
2022/12/23 05:06:50;;;;;;;1.10;0.70;;;;;;;;;;4993649;28;20490;-73
2022/12/23 05:09:15;;;;;;;1.10;0.70;;;;;;;;;;5008028;28;20443;-73
2022/12/23 05:11:41;;;;;;;1.20;0.63;;;;;;;;;;5000881;28;20462;-75
2022/12/23 05:14:09;;;;;;;1.73;0.87;;;;;;;;;;5031068;28;20195;-73
2022/12/23 05:16:35;;;;;;;0.90;0.50;;;;;;;;;;5013186;28;20454;-75
2022/12/23 05:19:01;;;;;;;1.43;0.63;;;;;;;;;;5034718;28;20833;-75
2022/12/23 05:21:27;;;;;;;1.97;0.60;;;;;;;;;;5006758;28;20450;-74
2022/12/23 05:23:52;;;;;;;1.10;0.70;;;;;;;;;;5027946;28;20480;-75
2022/12/23 05:26:19;;;;;;;1.20;0.80;;;;;;;;;;4994324;28;20468;-76
2022/12/23 05:28:45;;;;;;;0.97;0.60;;;;;;;;;;5039304;28;20538;-75
2022/12/23 05:31:11;;;;;;;0.90;0.50;;;;;;;;;;5006840;28;20541;-72
2022/12/23 05:33:37;;;;;;;1.00;0.60;;;;;;;;;;5038257;28;20492;-74
2022/12/23 05:36:03;;;;;;;1.10;0.80;;;;;;;;;;5016662;28;20887;-72
2022/12/23 05:38:29;;;;;;;1.03;0.63;;;;;;;;;;4999053;28;20459;-74
2022/12/23 05:40:55;;;;;;;1.00;0.53;;;;;;;;;;5010653;28;21477;-74
2022/12/23 05:43:21;;;;;;;1.90;0.70;;;;;;;;;;5017894;28;20804;-73
2022/12/23 05:45:47;;;;;;;1.00;0.70;;;;;;;;;;5035400;28;20482;-74
2022/12/23 05:48:13;;;;;;;1.00;0.67;;;;;;;;;;5002397;28;20497;-73
2022/12/23 05:50:40;;;;;;;1.20;0.63;;;;;;;;;;5032463;28;20455;-74
2022/12/23 05:53:06;;;;;;;1.20;0.83;;;;;;;;;;5018498;28;20438;-73
2022/12/23 05:55:38;;;;;;;1.40;0.80;;;;;;;;;;5007569;28;20852;-75
2022/12/23 05:58:04;;;;;;;1.53;0.90;;;;;;;;;;5012879;28;20434;-73
2022/12/23 06:00:31;;;;;;;1.50;0.90;;;;;;;;;;5021915;28;20875;-74
2022/12/23 06:02:56;;;;;;;2.13;1.17;;;;;;;;;;4999584;28;20434;-74
2022/12/23 06:05:22;;;;;;;1.77;1.00;;;;;;;;;;5025247;28;20974;-75
2022/12/23 06:07:48;;;;;;;1.73;0.90;;;;;;;;;;5016967;28;20442;-74
2022/12/23 06:10:14;;;;;;;1.70;1.00;;;;;;;;;;5032696;28;20434;-74
2022/12/23 06:12:40;;;;;;;1.50;1.10;;;;;;;;;;5008032;28;20448;-75
2022/12/23 06:15:07;;;;;;;1.70;1.30;;;;;;;;;;5026514;28;20471;-74
2022/12/23 06:17:33;;;;;;;1.50;0.93;;;;;;;;;;5003688;28;20440;-75
2022/12/23 06:19:59;;;;;;;1.50;1.00;;;;;;;;;;5035268;28;20449;-73
2022/12/23 06:22:25;;;;;;;1.80;1.17;;;;;;;;;;4998731;28;20453;-73
2022/12/23 06:24:51;;;;;;;4.50;1.20;;;;;;;;;;5040169;28;20485;-74
2022/12/23 06:27:18;;;;;;;1.83;1.40;;;;;;;;;;4962477;28;20451;-74
2022/12/23 06:29:43;;;;;;;1.53;1.03;;;;;;;;;;5010676;28;20447;-73
2022/12/23 06:32:09;;;;;;;1.77;1.67;;;;;;;;;;5022408;28;20427;-75
2022/12/23 06:34:35;;;;;;;1.60;1.23;;;;;;;;;;5033180;28;20446;-73
2022/12/23 06:37:01;;;;;;;3.90;1.30;;;;;;;;;;5018989;28;20443;-74
2022/12/23 06:39:27;;;;;;;1.40;1.20;;;;;;;;;;5032711;28;20454;-73
2022/12/23 06:41:54;;;;;;;1.83;1.30;;;;;;;;;;5012937;28;20479;-74
2022/12/23 06:44:20;;;;;;;2.10;1.90;;;;;;;;;;5027533;28;20471;-74
2022/12/23 06:46:49;;;;;;;4.70;1.50;;;;;;;;;;5023877;28;20450;-73
2022/12/23 06:49:15;;;;;;;2.60;1.50;;;;;;;;;;5036061;28;20168;-75
2022/12/23 06:51:41;;;;;;;1.60;1.40;;;;;;;;;;5025002;28;20474;-72
2022/12/23 06:54:09;;;;;;;2.13;1.37;;;;;;;;;;5005251;28;20910;-72
2022/12/23 06:57:12;;;;;;;2.00;1.30;;;;;;;;;;5020303;28;20443;-74
2022/12/23 06:59:38;;;;;;;3.63;1.40;;;;;;;;;;5033952;28;20932;-74
2022/12/23 07:02:05;;;;;;;1.83;1.57;;;;;;;;;;5031861;28;20431;-73
2022/12/23 07:04:31;;;;;;;2.70;1.77;;;;;;;;;;5028648;28;20522;-74
2022/12/23 07:06:57;;;;;;;2.77;2.20;;;;;;;;;;5017844;28;20442;-72
2022/12/23 07:09:23;;;;;;;6.30;1.97;;;;;;;;;;5002540;28;20444;-73
2022/12/23 07:11:49;;;;;;;2.00;1.57;;;;;;;;;;5027268;28;20469;-74
2022/12/23 07:14:16;;;;;;;3.40;1.87;;;;;;;;;;5027762;28;20463;-73
2022/12/23 07:16:42;;;;;;;3.93;2.73;;;;;;;;;;5003456;28;20447;-73
2022/12/23 07:19:08;;;;;;;2.30;1.63;;;;;;;;;;5013359;28;20441;-74
2022/12/23 07:21:35;;;;;;;4.43;1.63;;;;;;;;;;5025967;28;20911;-73
2022/12/23 07:24:01;;;;;;;2.67;1.53;;;;;;;;;;5018578;28;20438;-73
2022/12/23 07:26:45;;;;;;;3.63;2.00;;;;;;;;;;5004480;28;21036;-74
2022/12/23 07:29:13;;;;;;;2.70;2.00;;;;;;;;;;5025118;28;20881;-72
2022/12/23 07:31:40;;;;;;;4.37;2.00;;;;;;;;;;5020644;28;20445;-72
2022/12/23 07:34:05;;;;;;;4.40;1.70;;;;;;;;;;5004348;28;20537;-72
2022/12/23 07:36:32;;;;;;;3.27;1.93;;;;;;;;;;5033221;28;20526;-73
2022/12/23 07:38:58;;;;;;;3.70;2.77;;;;;;;;;;5016626;28;21670;-72
2022/12/23 07:41:24;;;;;;;2.43;2.13;;;;;;;;;;5039910;28;20426;-72
2022/12/23 07:43:49;;;;;;;2.30;1.60;;;;;;;;;;5016129;28;20476;-74
2022/12/23 07:46:15;;;;;;;8.73;1.87;;;;;;;;;;5000604;28;20518;-71
2022/12/23 07:48:42;;;;;;;3.13;2.57;;;;;;;;;;5005809;28;20443;-71
2022/12/23 07:51:08;;;;;;;4.43;1.87;;;;;;;;;;5021169;28;20435;-72
2022/12/23 07:53:34;;;;;;;3.20;1.43;;;;;;;;;;5036808;28;20434;-72
2022/12/23 07:56:00;;;;;;;2.63;1.87;;;;;;;;;;5039990;28;20430;-72
2022/12/23 07:58:26;;;;;;;1.60;1.30;;;;;;;;;;5006052;28;20470;-73
2022/12/23 08:00:58;;;;;;;2.00;1.63;;;;;;;;;;5031064;28;21310;-73
2022/12/23 08:03:24;;;;;;;4.27;2.10;;;;;;;;;;5023233;28;20722;-73
2022/12/23 08:05:58;;;;;;;3.30;2.13;;;;;;;;;;4991020;28;20479;-73
2022/12/23 08:08:24;;;;;;;2.97;2.10;;;;;;;;;;5000668;28;20435;-73
2022/12/23 08:10:50;;;;;;;2.43;1.97;;;;;;;;;;5034478;28;20865;-73
2022/12/23 08:13:16;;;;;;;2.07;1.80;;;;;;;;;;5023508;28;21057;-73
2022/12/23 08:15:41;;;;;;;7.27;1.87;;;;;;;;;;5030700;28;20241;-73
2022/12/23 08:18:07;;;;;;;3.90;2.33;;;;;;;;;;4995957;28;20307;-74
2022/12/23 08:20:33;;;;;;;2.00;1.80;;;;;;;;;;5030061;28;20259;-71
2022/12/23 08:22:59;;;;;;;2.07;1.87;;;;;;;;;;5011545;28;20533;-72
2022/12/23 08:25:25;;;;;;;5.60;2.30;;;;;;;;;;5040219;28;20484;-72
2022/12/23 08:27:51;;;;;;;2.73;2.33;;;;;;;;;;5012775;28;20879;-72
2022/12/23 08:30:17;;;;;;;4.83;2.03;;;;;;;;;;5027175;28;20865;-73
2022/12/23 08:32:43;;;;;;;2.57;2.07;;;;;;;;;;5003859;28;20537;-73
2022/12/23 08:35:09;;;;;;;3.23;1.60;;;;;;;;;;5018479;28;20537;-72
2022/12/23 08:37:35;;;;;;;3.37;2.00;;;;;;;;;;5002860;28;20931;-72
2022/12/23 08:40:02;;;;;;;1.93;1.37;;;;;;;;;;5018036;28;20453;-73
2022/12/23 08:42:28;;;;;;;4.93;1.70;;;;;;;;;;5007480;28;20469;-72
2022/12/23 08:44:53;;;;;;;5.47;2.00;;;;;;;;;;5029299;28;20474;-72
2022/12/23 08:47:19;;;;;;;2.57;1.23;;;;;;;;;;5006185;28;20447;-71
2022/12/23 08:49:45;;;;;;;5.20;1.57;;;;;;;;;;5020727;28;20537;-71
2022/12/23 08:52:11;;;;;;;2.93;1.30;;;;;;;;;;4982510;28;21080;-71
2022/12/23 08:54:37;;;;;;;3.20;1.90;;;;;;;;;;5022086;28;20182;-71
2022/12/23 08:57:03;;;;;;;3.33;2.50;;;;;;;;;;4999522;28;20442;-72
2022/12/23 08:59:30;;;;;;;3.23;1.43;;;;;;;;;;5030226;28;20442;-73
2022/12/23 09:01:58;;;;;;;2.37;1.50;;;;;;;;;;4995563;28;20858;-73
2022/12/23 09:04:24;;;;;;;3.10;2.63;;;;;;;;;;5016582;28;20582;-73
2022/12/23 09:06:50;;;;;;;5.10;2.70;;;;;;;;;;5012305;28;20485;-73
2022/12/23 09:09:16;;;;;;;2.27;2.07;;;;;;;;;;5030724;28;20461;-73
2022/12/23 09:11:42;;;;;;;3.73;2.37;;;;;;;;;;5019405;28;20541;-72
2022/12/23 09:14:09;;;;;;;3.00;2.13;;;;;;;;;;5030891;28;20469;-73
2022/12/23 09:16:35;;;;;;;3.50;2.20;;;;;;;;;;5011139;28;20504;-73
2022/12/23 09:19:01;;;;;;;5.40;2.20;;;;;;;;;;5004668;28;20433;-73
2022/12/23 09:21:27;;;;;;;4.53;2.43;;;;;;;;;;5028277;28;20427;-73
2022/12/23 09:23:52;;;;;;;1.73;1.20;;;;;;;;;;5001602;28;20946;-73
2022/12/23 09:26:19;;;;;;;1.93;1.53;;;;;;;;;;5033167;28;20485;-73
2022/12/23 09:28:45;;;;;;;2.30;1.60;;;;;;;;;;5010262;28;20474;-73
2022/12/23 09:31:12;;;;;;;3.20;1.77;;;;;;;;;;5040635;28;20553;-74
2022/12/23 09:33:38;;;;;;;2.40;1.90;;;;;;;;;;5039608;28;20462;-73
2022/12/23 09:36:04;;;;;;;3.83;2.50;;;;;;;;;;5042203;28;20486;-72
2022/12/23 09:38:30;;;;;;;2.17;1.37;;;;;;;;;;5007090;28;20469;-72
2022/12/23 09:41:02;;;;;;;3.13;2.20;;;;;;;;;;5016633;28;20441;-74
2022/12/23 09:43:28;;;;;;;2.70;1.83;;;;;;;;;;5035726;28;20495;-74
2022/12/23 09:46:00;;;;;;;3.20;1.60;;;;;;;;;;5037792;28;20491;-73
2022/12/23 09:48:28;;;;;;;2.80;1.87;;;;;;;;;;5028779;28;20429;-73
2022/12/23 09:50:54;;;;;;;2.27;1.60;;;;;;;;;;5008303;28;20450;-72
2022/12/23 09:53:21;;;;;;;1.97;1.70;;;;;;;;;;5026587;28;20440;-73
2022/12/23 09:55:53;;;;;;;1.97;1.23;;;;;;;;;;5013295;28;20439;-72
2022/12/23 09:58:29;;;;;;;1.30;1.13;;;;;;;;;;5028436;28;20449;-72
2022/12/23 10:01:14;;;;;;;3.00;2.17;;;;;;;;;;5014779;28;20484;-72
2022/12/23 10:03:46;;;;;;;1.80;1.57;;;;;;;;;;5030308;28;20505;-73
2022/12/23 10:06:18;;;;;;;3.13;1.50;;;;;;;;;;5021417;28;20932;-72
2022/12/23 10:08:54;;;;;;;2.70;1.60;;;;;;;;;;4994472;28;20931;-74
2022/12/23 10:11:20;;;;;;;2.47;1.63;;;;;;;;;;5026559;28;20449;-74
2022/12/23 10:13:53;;;;;;;2.90;2.63;;;;;;;;;;5032134;28;20454;-74
2022/12/23 10:16:20;;;;;;;3.77;2.13;;;;;;;;;;5019135;28;20474;-71
2022/12/23 10:18:53;;;;;;;2.30;1.60;;;;;;;;;;5032305;28;20439;-73
2022/12/23 10:21:22;;;;;;;1.23;1.13;;;;;;;;;;4979162;28;20479;-73
2022/12/23 10:23:49;;;;;;;6.80;3.17;;;;;;;;;;5031824;28;20531;-73
2022/12/23 10:26:19;;;;;;;5.10;2.73;;;;;;;;;;5005234;28;20478;-73
2022/12/23 10:28:45;;;;;;;2.17;1.97;;;;;;;;;;5039348;28;20431;-72
2022/12/23 10:31:12;;;;;;;2.37;1.67;;;;;;;;;;5011967;28;20457;-72
2022/12/23 10:33:44;;;;;;;2.23;1.93;;;;;;;;;;5010643;28;20453;-72
2022/12/23 10:36:12;;;;;;;2.47;1.83;;;;;;;;;;5022703;28;20446;-72
2022/12/23 10:38:53;;;;;;;3.73;2.13;;;;;;;;;;5020475;28;20458;-72
2022/12/23 10:41:25;;;;;;;5.23;2.10;;;;;;;;;;5013573;28;20881;-73
2022/12/23 10:44:09;;;;;;;3.90;1.90;;;;;;;;;;5012805;28;20948;-73
2022/12/23 10:46:54;;;;;;;2.50;1.80;;;;;;;;;;5028827;28;20446;-73
2022/12/23 10:49:27;;;;;;;3.20;2.17;;;;;;;;;;5025770;28;20442;-73
2022/12/23 10:51:54;;;;;;;4.80;3.63;;;;;;;;;;4979295;28;20439;-74
2022/12/23 10:54:22;;;;;;;5.50;5.00;;;;;;;;;;5015633;28;20907;-73
2022/12/23 10:56:48;;;;;;;7.40;3.10;;;;;;;;;;4978994;28;20443;-73
2022/12/23 10:59:15;;;;;;;2.77;2.57;;;;;;;;;;5029950;28;21085;-73
2022/12/23 11:01:42;;;;;;;3.07;2.73;;;;;;;;;;4998941;28;20443;-73
2022/12/23 11:04:13;;;;;;;3.97;3.57;;;;;;;;;;5007086;28;20452;-73
2022/12/23 11:06:40;;;;;;;2.20;2.00;;;;;;;;;;5013875;28;20423;-73
2022/12/23 11:09:06;;;;;;;1.67;1.40;;;;;;;;;;5037859;28;20929;-74
2022/12/23 11:11:51;;;;;;;1.80;0.90;;;;;;;;;;5000334;28;20449;-73
2022/12/23 11:14:30;;;;;;;1.47;1.17;;;;;;;;;;5023897;28;21038;-72
2022/12/23 11:16:56;;;;;;;4.40;1.57;;;;;;;;;;5004006;28;20479;-72
2022/12/23 11:19:22;;;;;;;3.07;1.20;;;;;;;;;;5012845;28;20470;-74
2022/12/23 11:21:55;;;;;;;3.33;1.60;;;;;;;;;;5013891;28;20450;-73
2022/12/23 11:24:21;;;;;;;1.90;1.67;;;;;;;;;;5021478;28;20963;-73
2022/12/23 11:26:48;;;;;;;2.83;1.23;;;;;;;;;;4972493;28;20465;-71
2022/12/23 11:29:22;;;;;;;1.63;1.13;;;;;;;;;;5014886;28;20434;-73
2022/12/23 11:31:48;;;;;;;4.50;2.00;;;;;;;;;;5013007;28;20450;-73
2022/12/23 11:34:15;;;;;;;1.83;1.33;;;;;;;;;;5017816;28;20446;-73
2022/12/23 11:36:41;;;;;;;2.07;1.67;;;;;;;;;;5016939;28;20455;-72
2022/12/23 11:39:14;;;;;;;1.80;1.27;;;;;;;;;;5001629;28;21429;-74
2022/12/23 11:41:46;;;;;;;1.63;1.17;;;;;;;;;;5003631;28;20474;-72
2022/12/23 11:44:37;;;;;;;1.10;0.80;;;;;;;;;;5010429;28;20458;-72
2022/12/23 11:47:18;;;;;;;1.17;0.90;;;;;;;;;;5015808;28;20526;-72
2022/12/23 11:49:48;;;;;;;1.20;0.70;;;;;;;;;;5010537;28;20872;-72
2022/12/23 11:52:14;;;;;;;1.10;0.70;;;;;;;;;;5016699;28;20502;-72
2022/12/23 11:54:40;;;;;;;1.50;1.00;;;;;;;;;;4979062;28;20519;-72
2022/12/23 11:57:08;;;;;;;1.10;0.70;;;;;;;;;;5031548;28;20517;-72
2022/12/23 11:59:34;;;;;;;4.80;0.70;;;;;;;;;;4997100;28;20855;-72
2022/12/23 12:02:04;;;;;;;1.60;1.30;;;;;;;;;;5023285;28;20435;-72
2022/12/23 12:04:34;;;;;;;1.40;0.90;;;;;;;;;;4979847;28;20652;-72
2022/12/23 12:07:00;;;;;;;1.43;1.07;;;;;;;;;;5017713;28;20446;-73
2022/12/23 12:09:26;;;;;;;1.30;1.07;;;;;;;;;;5009063;28;21489;-73
2022/12/23 12:11:53;;;;;;;1.13;0.90;;;;;;;;;;5015051;28;20443;-73
2022/12/23 12:14:51;;;;;;;1.77;1.03;;;;;;;;;;5005095;28;20456;-74
2022/12/23 12:17:17;;;;;;;1.40;1.07;;;;;;;;;;5011052;28;20459;-72
2022/12/23 12:19:56;;;;;;;1.37;1.03;;;;;;;;;;5030522;28;20476;-72
2022/12/23 12:22:42;;;;;;;1.57;1.07;;;;;;;;;;5011167;28;22262;-73
2022/12/23 12:25:31;;;;;;;1.33;0.97;;;;;;;;;;5001250;28;21680;-73
2022/12/23 12:27:59;;;;;;;1.70;0.80;;;;;;;;;;5017421;28;20447;-72
2022/12/23 12:30:25;;;;;;;1.63;1.10;;;;;;;;;;5006041;28;20612;-73
2022/12/23 12:32:54;;;;;;;2.20;1.10;;;;;;;;;;5020071;28;20432;-72
2022/12/23 12:35:31;;;;;;;2.60;0.80;;;;;;;;;;4980720;28;20454;-74
2022/12/23 12:37:59;;;;;;;1.30;0.93;;;;;;;;;;4967951;28;20438;-72
2022/12/23 12:40:34;;;;;;;2.03;1.30;;;;;;;;;;5029888;28;20434;-72
2022/12/23 12:43:06;;;;;;;1.80;1.33;;;;;;;;;;4991047;28;20498;-71
2022/12/23 12:46:19;;;;;;;2.50;1.70;;;;;;;;;;5027163;28;20605;-75
2022/12/23 12:49:04;;;;;;;2.67;1.60;;;;;;;;;;4998139;28;20438;-72
2022/12/23 12:51:42;;;;;;;2.60;1.43;;;;;;;;;;5012086;28;20571;-71
2022/12/23 12:54:25;;;;;;;3.80;2.20;;;;;;;;;;5012406;28;20798;-72
2022/12/23 12:56:57;;;;;;;2.63;1.30;;;;;;;;;;4987578;28;20446;-73
2022/12/23 12:59:33;;;;;;;2.60;1.00;;;;;;;;;;4991946;28;20529;-73
2022/12/23 13:02:18;;;;;;;2.47;1.80;;;;;;;;;;4990382;28;20442;-73
2022/12/23 13:04:43;;;;;;;2.83;1.20;;;;;;;;;;5031011;28;21291;-73
2022/12/23 13:07:09;;;;;;;2.60;1.70;;;;;;;;;;4990268;28;20436;-72
2022/12/23 13:09:56;;;;;;;2.93;1.30;;;;;;;;;;5023857;28;20425;-72
2022/12/23 13:12:25;;;;;;;1.63;1.10;;;;;;;;;;4991379;28;20440;-71
2022/12/23 13:14:55;;;;;;;1.90;1.33;;;;;;;;;;4971484;28;20994;-72
2022/12/23 13:17:24;;;;;;;2.60;1.47;;;;;;;;;;4977059;28;20455;-71
2022/12/23 13:20:15;;;;;;;2.67;1.40;;;;;;;;;;5023044;28;20786;-75
2022/12/23 13:22:44;;;;;;;1.63;1.10;;;;;;;;;;5032731;28;20448;-72
2022/12/23 13:25:13;;;;;;;1.60;1.10;;;;;;;;;;4985077;28;21173;-72
2022/12/23 13:27:44;;;;;;;5.40;1.80;;;;;;;;;;5029251;28;21587;-72
2022/12/23 13:30:12;;;;;;;2.20;1.00;;;;;;;;;;5001471;28;20441;-73
2022/12/23 13:32:50;;;;;;;2.17;1.30;;;;;;;;;;5017299;28;20461;-74
2022/12/23 13:35:24;;;;;;;1.47;0.73;;;;;;;;;;4972795;28;20772;-75
2022/12/23 13:37:54;;;;;;;1.73;0.80;;;;;;;;;;4992890;28;20542;-72
2022/12/23 13:40:40;;;;;;;3.17;1.17;;;;;;;;;;4991123;28;24250;-74
2022/12/23 13:43:10;;;;;;;1.93;1.30;;;;;;;;;;5024414;28;20427;-72
2022/12/23 13:45:39;;;;;;;1.10;0.97;;;;;;;;;;4997133;28;20669;-73
2022/12/23 13:48:17;;;;;;;2.80;1.27;;;;;;;;;;5026045;28;20446;-72
2022/12/23 13:51:02;;;;;;;1.30;1.00;;;;;;;;;;4966027;28;21172;-72
2022/12/23 13:53:33;;;;;;;2.50;0.90;;;;;;;;;;5017488;28;20443;-72
2022/12/23 13:56:07;;;;;;;2.90;1.20;;;;;;;;;;4980358;28;20879;-72
2022/12/23 13:58:33;;;;;;;3.73;0.80;;;;;;;;;;5027345;28;20438;-72
2022/12/23 14:01:02;;;;;;;2.10;1.27;;;;;;;;;;4995344;28;20537;-72
2022/12/23 14:03:33;;;;;;;1.73;1.17;;;;;;;;;;5011626;28;20955;-73
2022/12/23 14:05:59;;;;;;;1.70;0.90;;;;;;;;;;5026936;28;20524;-72
2022/12/23 14:08:26;;;;;;;1.60;1.23;;;;;;;;;;5036012;28;20468;-73
2022/12/23 14:11:01;;;;;;;2.90;1.10;;;;;;;;;;4994576;28;20438;-72
2022/12/23 14:13:47;;;;;;;1.80;1.10;;;;;;;;;;5031865;28;20435;-73
2022/12/23 14:16:20;;;;;;;11.73;7.87;;;;;;;;;;5003583;28;20436;-72
2022/12/23 14:18:52;;;;;;;2.87;2.20;;;;;;;;;;4996824;28;20481;-73
2022/12/23 14:21:30;;;;;;;1.70;1.30;;;;;;;;;;5021552;28;20450;-72
2022/12/23 14:24:10;;;;;;;3.20;1.60;;;;;;;;;;5014571;28;21107;-73
2022/12/23 14:26:40;;;;;;;2.40;1.60;;;;;;;;;;5001208;28;20490;-73
2022/12/23 14:29:18;;;;;;;2.00;1.50;;;;;;;;;;5030443;28;20447;-72
2022/12/23 14:31:44;;;;;;;2.13;1.40;;;;;;;;;;4974524;28;20782;-70
2022/12/23 14:34:21;;;;;;;1.70;1.13;;;;;;;;;;5012951;28;20434;-72
2022/12/23 14:37:05;;;;;;;2.33;1.30;;;;;;;;;;5017890;28;20447;-73
2022/12/23 14:39:32;;;;;;;2.60;1.50;;;;;;;;;;5031910;28;20438;-73
2022/12/23 14:41:58;;;;;;;2.43;1.10;;;;;;;;;;4990084;28;20435;-73
2022/12/23 14:44:36;;;;;;;3.83;1.87;;;;;;;;;;5018354;28;20924;-71
2022/12/23 14:47:03;;;;;;;5.83;2.40;;;;;;;;;;4999190;28;20433;-72
2022/12/23 14:49:36;;;;;;;1.70;1.40;;;;;;;;;;4984147;28;20439;-72
2022/12/23 14:52:20;;;;;;;1.50;1.03;;;;;;;;;;5039072;28;20430;-72
2022/12/23 14:54:46;;;;;;;1.70;1.03;;;;;;;;;;5011564;28;20480;-71
2022/12/23 14:57:19;;;;;;;1.77;1.27;;;;;;;;;;5041348;28;20434;-71
2022/12/23 14:59:50;;;;;;;2.90;1.37;;;;;;;;;;4962829;28;20194;-72
2022/12/23 15:02:26;;;;;;;3.20;1.40;;;;;;;;;;4981859;28;20463;-70
2022/12/23 15:04:56;;;;;;;4.37;2.00;;;;;;;;;;4988699;28;20478;-72
2022/12/23 15:07:42;;;;;;;2.17;1.57;;;;;;;;;;5005829;28;20430;-73
2022/12/23 15:10:08;;;;;;;2.10;1.43;;;;;;;;;;5026300;28;20436;-73
2022/12/23 15:12:35;;;;;;;3.77;1.77;;;;;;;;;;5011042;28;21619;-72
2022/12/23 15:15:03;;;;;;;5.33;3.00;;;;;;;;;;4970603;28;20450;-74
2022/12/23 15:17:30;;;;;;;5.13;2.67;;;;;;;;;;4988099;28;20511;-72
2022/12/23 15:20:23;;;;;;;2.40;2.07;;;;;;;;;;5017715;28;20431;-73
2022/12/23 15:22:49;;;;;;;4.03;2.67;;;;;;;;;;5022055;28;20474;-73
2022/12/23 15:25:19;;;;;;;4.00;2.13;;;;;;;;;;5013667;28;21827;-72
2022/12/23 15:27:45;;;;;;;3.07;2.20;;;;;;;;;;5013343;28;20798;-72
2022/12/23 15:30:28;;;;;;;5.43;3.00;;;;;;;;;;5016323;28;20427;-74
2022/12/23 15:32:57;;;;;;;5.90;4.30;;;;;;;;;;5014517;28;21875;-73